createdAt,value
2022-07-28T00:02:25.007Z,17.90
2022-07-28T00:04:51.905Z,17.90
2022-07-28T00:07:19.942Z,17.80
2022-07-28T00:09:46.862Z,17.80
2022-07-28T00:12:13.631Z,17.70
2022-07-28T00:14:40.683Z,17.70
2022-07-28T00:17:07.715Z,17.70
2022-07-28T00:19:34.590Z,17.70
2022-07-28T00:22:02.611Z,17.70
2022-07-28T00:24:29.643Z,17.80
2022-07-28T00:26:56.573Z,17.80
2022-07-28T00:29:23.438Z,17.70
2022-07-28T00:31:50.203Z,17.60
2022-07-28T00:34:18.300Z,17.50
2022-07-28T00:36:45.083Z,17.30
2022-07-28T00:39:11.822Z,17.20
2022-07-28T00:41:38.730Z,17.20
2022-07-28T00:44:07.836Z,17.20
2022-07-28T00:46:35.161Z,17.20
2022-07-28T00:49:02.640Z,17.20
2022-07-28T00:51:29.943Z,17.30
2022-07-28T00:53:57.015Z,17.30
2022-07-28T00:56:24.662Z,17.30
2022-07-28T00:58:51.653Z,17.30
2022-07-28T01:01:20.451Z,17.40
2022-07-28T01:03:53.898Z,17.40
2022-07-28T01:06:45.391Z,17.20
2022-07-28T01:09:38.546Z,17.10
2022-07-28T01:12:49.292Z,17.10
2022-07-28T01:15:28.042Z,17.10
2022-07-28T01:18:00.668Z,17.00
2022-07-28T01:20:45.302Z,17.00
2022-07-28T01:23:12.046Z,17.10
2022-07-28T01:25:57.310Z,17.10
2022-07-28T01:28:40.098Z,17.10
2022-07-28T01:31:09.154Z,17.00
2022-07-28T01:33:45.746Z,17.00
2022-07-28T01:36:16.642Z,16.90
2022-07-28T01:38:46.069Z,16.90
2022-07-28T01:41:17.803Z,16.90
2022-07-28T01:43:48.213Z,16.90
2022-07-28T01:46:16.470Z,16.80
2022-07-28T01:48:45.780Z,16.70
2022-07-28T01:51:14.266Z,16.70
2022-07-28T01:53:43.345Z,16.70
2022-07-28T01:56:11.466Z,16.70
2022-07-28T01:58:39.749Z,16.70
2022-07-28T02:01:07.634Z,16.70
2022-07-28T02:03:35.466Z,16.60
2022-07-28T02:06:04.674Z,16.40
2022-07-28T02:08:33.569Z,16.30
2022-07-28T02:11:19.795Z,16.40
2022-07-28T02:13:50.118Z,16.40
2022-07-28T02:16:20.948Z,16.50
2022-07-28T02:18:49.766Z,16.50
2022-07-28T02:21:17.980Z,16.50
2022-07-28T02:23:48.277Z,16.40
2022-07-28T02:26:18.010Z,16.40
2022-07-28T02:28:52.479Z,16.30
2022-07-28T02:31:31.969Z,16.30
2022-07-28T02:34:03.132Z,16.30
2022-07-28T02:36:37.700Z,16.30
2022-07-28T02:39:09.007Z,16.30
2022-07-28T02:41:42.784Z,16.40
2022-07-28T02:44:16.319Z,16.40
2022-07-28T02:46:48.006Z,16.40
2022-07-28T02:49:21.664Z,16.40
2022-07-28T02:51:53.234Z,16.40
2022-07-28T02:54:21.968Z,16.40
2022-07-28T02:56:53.249Z,16.40
2022-07-28T02:59:22.005Z,16.30
2022-07-28T03:01:50.872Z,16.30
2022-07-28T03:04:38.610Z,16.30
2022-07-28T03:07:06.107Z,16.30
2022-07-28T03:09:45.870Z,16.50
2022-07-28T03:12:13.698Z,16.60
2022-07-28T03:14:40.867Z,16.80
2022-07-28T03:17:08.140Z,16.70
2022-07-28T03:19:35.241Z,16.80
2022-07-28T03:22:02.177Z,16.90
2022-07-28T03:24:36.916Z,17.00
2022-07-28T03:27:13.373Z,17.00
2022-07-28T03:29:42.689Z,17.00
2022-07-28T03:32:10.116Z,17.00
2022-07-28T03:34:37.075Z,17.00
2022-07-28T03:37:11.893Z,17.10
2022-07-28T03:39:46.833Z,17.00
2022-07-28T03:42:18.669Z,17.10
2022-07-28T03:44:49.069Z,17.00
2022-07-28T03:47:16.117Z,17.00
2022-07-28T03:49:46.011Z,17.00
2022-07-28T03:52:12.895Z,17.00
2022-07-28T03:54:39.632Z,17.00
2022-07-28T03:57:06.410Z,17.00
2022-07-28T03:59:33.299Z,17.00
2022-07-28T04:02:00.118Z,17.00
2022-07-28T04:04:27.011Z,17.10
2022-07-28T04:06:53.798Z,17.00
2022-07-28T04:09:20.577Z,17.00
2022-07-28T04:11:47.401Z,17.00
2022-07-28T04:14:16.817Z,17.00
2022-07-28T04:16:44.675Z,17.00
2022-07-28T04:19:11.553Z,17.10
2022-07-28T04:21:38.345Z,17.20
2022-07-28T04:24:05.751Z,17.20
2022-07-28T04:26:32.499Z,17.20
2022-07-28T04:28:59.306Z,17.20
2022-07-28T04:31:30.685Z,17.20
2022-07-28T04:33:57.554Z,17.30
2022-07-28T04:36:25.372Z,17.30
2022-07-28T04:38:52.163Z,17.30
2022-07-28T04:41:18.928Z,17.40
2022-07-28T04:43:46.135Z,17.50
2022-07-28T04:46:15.170Z,17.50
2022-07-28T04:48:42.469Z,17.50
2022-07-28T04:51:10.067Z,17.60
2022-07-28T04:53:36.981Z,17.70
2022-07-28T04:56:03.991Z,17.70
2022-07-28T04:58:31.822Z,17.70
2022-07-28T05:00:59.713Z,17.80
2022-07-28T05:03:26.637Z,17.90
2022-07-28T05:05:54.793Z,17.90
2022-07-28T05:08:26.218Z,18.00
2022-07-28T05:10:53.807Z,17.90
2022-07-28T05:13:20.617Z,18.00
2022-07-28T05:15:47.426Z,18.10
2022-07-28T05:18:14.643Z,18.20
2022-07-28T05:20:41.371Z,18.20
2022-07-28T05:23:08.483Z,18.30
2022-07-28T05:25:35.234Z,18.30
2022-07-28T05:28:02.023Z,18.40
2022-07-28T05:30:29.481Z,18.40
2022-07-28T05:33:00.036Z,18.40
2022-07-28T05:35:27.244Z,18.40
2022-07-28T05:37:54.068Z,18.40
2022-07-28T05:40:21.201Z,18.40
2022-07-28T05:42:47.979Z,18.40
2022-07-28T05:45:17.668Z,18.40
2022-07-28T05:47:47.392Z,18.50
2022-07-28T05:50:16.023Z,18.70
2022-07-28T05:52:43.134Z,18.70
2022-07-28T05:55:10.313Z,18.70
2022-07-28T05:57:38.475Z,18.90
2022-07-28T06:00:17.128Z,19.00
2022-07-28T06:02:45.977Z,19.10
2022-07-28T06:05:14.014Z,19.20
2022-07-28T06:07:43.297Z,19.40
2022-07-28T06:10:16.188Z,19.40
2022-07-28T06:12:45.742Z,19.40
2022-07-28T06:15:21.476Z,19.50
2022-07-28T06:17:48.812Z,19.40
2022-07-28T06:20:15.582Z,19.40
2022-07-28T06:22:55.463Z,19.40
2022-07-28T06:25:24.804Z,19.30
2022-07-28T06:27:53.679Z,19.40
2022-07-28T06:30:20.881Z,19.80
2022-07-28T06:32:47.855Z,20.10
2022-07-28T06:35:16.673Z,20.30
2022-07-28T06:37:44.951Z,20.30
2022-07-28T06:40:12.909Z,20.40
2022-07-28T06:42:41.272Z,20.50
2022-07-28T06:45:09.222Z,20.70
2022-07-28T06:47:47.397Z,20.90
2022-07-28T06:50:25.324Z,21.10
2022-07-28T06:52:55.776Z,21.10
2022-07-28T06:55:22.904Z,21.20
2022-07-28T06:57:49.697Z,21.30
2022-07-28T07:00:17.220Z,21.40
2022-07-28T07:02:44.054Z,21.50
2022-07-28T07:05:12.187Z,21.70
2022-07-28T07:07:43.020Z,22.00
2022-07-28T07:10:10.930Z,22.20
2022-07-28T07:12:37.786Z,22.30
2022-07-28T07:15:06.150Z,22.40
2022-07-28T07:17:33.292Z,22.50
2022-07-28T07:20:00.077Z,22.50
2022-07-28T07:22:27.050Z,22.20
2022-07-28T07:24:57.101Z,22.40
2022-07-28T07:27:25.099Z,22.70
2022-07-28T07:29:51.875Z,22.80
2022-07-28T07:32:18.609Z,22.70
2022-07-28T07:34:45.346Z,22.70
2022-07-28T07:37:14.537Z,22.80
2022-07-28T07:39:41.881Z,22.60
2022-07-28T07:42:09.233Z,22.70
2022-07-28T07:44:35.937Z,22.70
2022-07-28T07:47:03.758Z,22.80
2022-07-28T07:49:42.309Z,22.90
2022-07-28T07:52:13.377Z,23.20
2022-07-28T07:54:42.051Z,23.40
2022-07-28T07:57:10.327Z,23.30
2022-07-28T07:59:37.476Z,23.30
2022-07-28T08:02:04.467Z,23.30
2022-07-28T08:04:37.508Z,23.30
2022-07-28T08:07:05.978Z,23.30
2022-07-28T08:09:33.792Z,23.50
2022-07-28T08:12:00.618Z,23.40
2022-07-28T08:14:27.454Z,23.40
2022-07-28T08:16:56.476Z,23.40
2022-07-28T08:19:23.673Z,23.70
2022-07-28T08:21:52.186Z,23.90
2022-07-28T08:24:27.803Z,24.00
2022-07-28T08:27:06.732Z,24.00
2022-07-28T08:29:34.519Z,23.60
2022-07-28T08:32:04.213Z,23.80
2022-07-28T08:34:33.558Z,23.90
2022-07-28T08:37:04.996Z,24.20
2022-07-28T08:39:34.393Z,24.40
2022-07-28T08:42:23.249Z,24.30
2022-07-28T08:45:20.689Z,24.50
2022-07-28T08:48:07.712Z,24.50
2022-07-28T08:50:35.526Z,24.40
2022-07-28T08:53:02.748Z,24.40
2022-07-28T08:55:32.246Z,24.40
2022-07-28T08:58:00.198Z,24.60
2022-07-28T09:00:27.614Z,24.60
2022-07-28T09:02:55.614Z,24.40
2022-07-28T09:05:24.348Z,24.60
2022-07-28T09:07:55.366Z,24.80
2022-07-28T09:10:26.328Z,25.00
2022-07-28T09:12:53.743Z,25.10
2022-07-28T09:15:20.892Z,25.20
2022-07-28T09:17:47.618Z,25.00
2022-07-28T09:20:15.910Z,25.00
2022-07-28T09:23:33.627Z,25.20
2022-07-28T09:26:12.446Z,25.00
2022-07-28T09:28:52.013Z,25.40
2022-07-28T09:31:19.719Z,25.50
2022-07-28T09:33:58.017Z,25.60
2022-07-28T09:36:25.010Z,25.50
2022-07-28T09:38:52.464Z,25.80
2022-07-28T09:41:21.925Z,25.90
2022-07-28T09:43:54.993Z,26.00
2022-07-28T09:46:25.678Z,26.10
2022-07-28T09:48:54.299Z,26.20
2022-07-28T09:51:35.628Z,26.20
2022-07-28T09:54:13.222Z,26.30
2022-07-28T09:56:45.950Z,26.20
2022-07-28T09:59:14.672Z,26.30
2022-07-28T10:02:01.776Z,26.50
2022-07-28T10:04:42.344Z,26.30
2022-07-28T10:07:15.753Z,26.30
2022-07-28T10:09:42.629Z,26.40
2022-07-28T10:12:24.958Z,26.60
2022-07-28T10:14:58.317Z,26.80
2022-07-28T10:17:27.328Z,27.00
2022-07-28T10:19:55.142Z,27.10
2022-07-28T10:22:23.506Z,27.20
2022-07-28T10:24:53.702Z,27.00
2022-07-28T10:27:23.161Z,27.20
2022-07-28T10:29:59.414Z,27.10
2022-07-28T10:32:29.654Z,27.00
2022-07-28T10:35:03.663Z,27.30
2022-07-28T10:37:35.401Z,27.70
2022-07-28T10:40:10.101Z,27.90
2022-07-28T10:42:39.423Z,28.00
2022-07-28T10:45:11.233Z,28.20
2022-07-28T10:47:38.387Z,28.40
2022-07-28T10:50:06.242Z,28.30
2022-07-28T10:52:47.275Z,28.60
2022-07-28T10:55:31.903Z,28.30
2022-07-28T10:58:13.265Z,28.40
2022-07-28T11:00:57.305Z,28.60
2022-07-28T11:03:43.170Z,28.70
2022-07-28T11:06:37.134Z,28.90
2022-07-28T11:09:15.983Z,28.60
2022-07-28T11:11:55.049Z,28.60
2022-07-28T11:14:37.079Z,28.40
2022-07-28T11:17:04.835Z,28.40
2022-07-28T11:19:55.668Z,28.30
2022-07-28T11:22:29.081Z,28.50
2022-07-28T11:24:57.947Z,28.80
2022-07-28T11:27:44.260Z,28.90
2022-07-28T11:30:36.527Z,29.00
2022-07-28T11:33:09.525Z,28.80
2022-07-28T11:35:39.340Z,28.80
2022-07-28T11:38:06.314Z,28.70
2022-07-28T11:40:40.210Z,28.70
2022-07-28T11:43:24.225Z,28.50
2022-07-28T11:46:11.180Z,28.60
2022-07-28T11:48:41.003Z,28.90
2022-07-28T11:51:07.805Z,29.00
2022-07-28T11:53:42.234Z,29.40
2022-07-28T11:56:16.815Z,29.70
2022-07-28T11:58:44.055Z,29.70
2022-07-28T12:01:18.115Z,29.50
2022-07-28T12:03:55.155Z,29.40
2022-07-28T12:06:35.269Z,29.30
2022-07-28T12:09:03.893Z,29.20
2022-07-28T12:11:41.089Z,29.10
2022-07-28T12:14:17.338Z,29.10
2022-07-28T12:16:49.998Z,29.10
2022-07-28T12:19:19.014Z,29.20
2022-07-28T12:21:52.715Z,29.40
2022-07-28T12:24:26.258Z,29.50
2022-07-28T12:26:53.123Z,29.50
2022-07-28T12:29:20.681Z,29.80
2022-07-28T12:32:00.015Z,29.80
2022-07-28T12:34:28.865Z,29.80
2022-07-28T12:36:58.662Z,29.90
2022-07-28T12:39:26.314Z,29.80
2022-07-28T12:42:07.358Z,29.80
2022-07-28T12:44:36.112Z,29.70
2022-07-28T12:47:04.393Z,29.50
2022-07-28T12:49:31.175Z,29.50
2022-07-28T12:51:59.185Z,29.50
2022-07-28T12:54:37.328Z,29.70
2022-07-28T12:57:04.531Z,29.70
2022-07-28T12:59:36.365Z,29.80
2022-07-28T13:02:03.907Z,30.00
2022-07-28T13:04:48.095Z,30.10
2022-07-28T13:07:21.496Z,30.10
2022-07-28T13:10:00.905Z,30.50
2022-07-28T13:12:28.519Z,30.40
2022-07-28T13:14:58.381Z,30.40
2022-07-28T13:17:33.066Z,30.40
2022-07-28T13:20:10.217Z,30.50
2022-07-28T13:22:37.177Z,30.60
2022-07-28T13:25:04.857Z,30.70
2022-07-28T13:27:32.732Z,30.80
2022-07-28T13:30:00.828Z,30.90
2022-07-28T13:32:28.313Z,30.90
2022-07-28T13:34:57.053Z,31.10
2022-07-28T13:37:24.346Z,30.90
2022-07-28T13:39:54.473Z,31.30
2022-07-28T13:42:23.694Z,31.60
2022-07-28T13:44:50.943Z,31.60
2022-07-28T13:47:18.860Z,31.40
2022-07-28T13:49:46.425Z,31.10
2022-07-28T13:52:32.494Z,30.70
2022-07-28T13:55:04.140Z,30.40
2022-07-28T13:57:31.389Z,30.10
2022-07-28T14:00:07.574Z,30.10
2022-07-28T14:02:35.579Z,30.20
2022-07-28T14:05:02.659Z,30.10
2022-07-28T14:07:29.466Z,30.20
2022-07-28T14:09:56.259Z,30.20
2022-07-28T14:12:23.584Z,30.20
2022-07-28T14:14:52.004Z,30.00
2022-07-28T14:17:43.919Z,30.00
2022-07-28T14:20:13.557Z,30.00
2022-07-28T14:22:40.899Z,29.90
2022-07-28T14:25:08.220Z,30.10
2022-07-28T14:27:35.484Z,30.20
2022-07-28T14:30:04.162Z,30.30
2022-07-28T14:32:32.225Z,30.60
2022-07-28T14:34:59.227Z,30.60
2022-07-28T14:37:26.533Z,30.60
2022-07-28T14:39:53.551Z,31.30
2022-07-28T14:42:22.773Z,32.10
2022-07-28T14:44:49.670Z,32.90
2022-07-28T14:47:17.618Z,33.50
2022-07-28T14:49:57.777Z,34.10
2022-07-28T14:52:26.868Z,33.90
2022-07-28T14:54:57.435Z,33.20
2022-07-28T14:57:47.994Z,32.50
2022-07-28T15:00:14.120Z,31.90
2022-07-28T15:02:41.149Z,31.50
2022-07-28T15:05:09.141Z,31.40
2022-07-28T15:07:36.076Z,31.30
2022-07-28T15:10:04.977Z,31.30
2022-07-28T15:12:32.008Z,31.20
2022-07-28T15:14:58.872Z,31.10
2022-07-28T15:17:25.989Z,31.10
2022-07-28T15:19:52.753Z,30.90
2022-07-28T15:22:19.548Z,30.80
2022-07-28T15:24:46.477Z,31.40
2022-07-28T15:27:13.227Z,32.70
2022-07-28T15:29:39.983Z,33.40
2022-07-28T15:32:12.373Z,33.80
2022-07-28T15:34:40.022Z,33.40
2022-07-28T15:37:07.273Z,32.40
2022-07-28T15:39:34.154Z,32.10
2022-07-28T15:42:01.586Z,32.70
2022-07-28T15:44:30.016Z,33.70
2022-07-28T15:46:57.000Z,34.70
2022-07-28T15:49:23.910Z,34.60
2022-07-28T15:51:50.836Z,34.50
2022-07-28T15:54:18.648Z,34.10
2022-07-28T15:56:45.941Z,33.90
2022-07-28T15:59:13.103Z,33.20
2022-07-28T16:01:45.182Z,32.10
2022-07-28T16:04:12.849Z,31.60
2022-07-28T16:06:59.065Z,31.20
2022-07-28T16:09:46.064Z,30.90
2022-07-28T16:12:14.282Z,31.00
2022-07-28T16:14:42.336Z,30.90
2022-07-28T16:17:10.434Z,31.10
2022-07-28T16:19:48.967Z,32.00
2022-07-28T16:22:20.515Z,32.60
2022-07-28T16:24:48.095Z,33.20
2022-07-28T16:27:15.058Z,33.20
2022-07-28T16:29:42.596Z,32.50
2022-07-28T16:32:09.627Z,32.20
2022-07-28T16:34:36.710Z,31.90
2022-07-28T16:37:05.717Z,31.30
2022-07-28T16:39:34.316Z,30.90
2022-07-28T16:42:01.686Z,30.10
2022-07-28T16:44:29.292Z,30.00
2022-07-28T16:46:57.010Z,29.90
2022-07-28T16:49:24.541Z,29.90
2022-07-28T16:51:51.667Z,29.90
2022-07-28T16:54:19.561Z,29.90
2022-07-28T16:56:46.854Z,29.90
2022-07-28T16:59:13.920Z,29.90
2022-07-28T17:01:45.804Z,30.00
2022-07-28T17:04:14.890Z,29.90
2022-07-28T17:06:42.214Z,29.90
2022-07-28T17:09:09.323Z,29.70
2022-07-28T17:11:36.170Z,29.80
2022-07-28T17:14:03.375Z,29.60
2022-07-28T17:16:30.620Z,29.40
2022-07-28T17:18:57.892Z,29.30
2022-07-28T17:21:25.930Z,29.20
2022-07-28T17:23:53.557Z,29.10
2022-07-28T17:29:08.865Z,28.90
2022-07-28T17:31:36.180Z,28.80
2022-07-28T17:34:03.146Z,28.80
2022-07-28T17:36:33.851Z,28.80
2022-07-28T17:39:00.980Z,29.00
2022-07-28T17:41:28.256Z,28.90
2022-07-28T17:43:55.035Z,28.90
2022-07-28T17:46:21.889Z,28.80
2022-07-28T17:48:48.724Z,28.70
2022-07-28T17:51:18.036Z,28.70
2022-07-28T17:53:45.906Z,28.60
2022-07-28T17:56:13.616Z,28.40
2022-07-28T17:58:40.878Z,28.40
2022-07-28T18:01:12.675Z,28.20
2022-07-28T18:03:58.757Z,28.10
2022-07-28T18:06:33.912Z,28.00
2022-07-28T18:09:05.909Z,27.90
2022-07-28T18:11:56.885Z,27.80
2022-07-28T18:14:29.246Z,27.90
2022-07-28T18:16:57.092Z,27.90
2022-07-28T18:19:24.015Z,27.80
2022-07-28T18:21:50.909Z,27.70
2022-07-28T18:24:18.537Z,27.70
2022-07-28T18:26:45.716Z,27.60
2022-07-28T18:29:12.471Z,27.50
2022-07-28T18:31:45.624Z,27.40
2022-07-28T18:34:14.128Z,27.30
2022-07-28T18:36:41.183Z,27.30
2022-07-28T18:39:08.553Z,27.20
2022-07-28T18:41:46.292Z,27.20
2022-07-28T18:44:15.754Z,27.10
2022-07-28T18:46:42.990Z,27.10
2022-07-28T18:49:09.997Z,27.10
2022-07-28T18:51:37.285Z,27.10
2022-07-28T18:54:04.261Z,27.00
2022-07-28T18:56:31.750Z,26.90
2022-07-28T18:58:58.804Z,26.80
2022-07-28T19:01:25.645Z,26.80
2022-07-28T19:03:52.511Z,26.70
2022-07-28T19:06:20.594Z,26.60
2022-07-28T19:08:47.345Z,26.50
2022-07-28T19:11:18.757Z,26.40
2022-07-28T19:13:46.594Z,26.20
2022-07-28T19:16:13.409Z,26.20
2022-07-28T19:18:40.587Z,26.10
2022-07-28T19:21:07.998Z,26.00
2022-07-28T19:23:34.734Z,25.90
2022-07-28T19:26:02.196Z,25.80
2022-07-28T19:28:29.249Z,25.80
2022-07-28T19:30:58.592Z,25.70
2022-07-28T19:33:26.094Z,25.70
2022-07-28T19:35:52.915Z,25.70
2022-07-28T19:38:19.717Z,25.60
2022-07-28T19:40:46.663Z,25.60
2022-07-28T19:43:13.443Z,25.50
2022-07-28T19:45:40.544Z,25.50
2022-07-28T19:48:07.515Z,25.40
2022-07-28T19:50:36.124Z,25.40
2022-07-28T19:53:03.546Z,25.30
2022-07-28T19:55:34.990Z,25.30
2022-07-28T19:58:03.742Z,25.30
2022-07-28T20:00:30.541Z,25.20
2022-07-28T20:02:57.497Z,25.20
2022-07-28T20:05:24.813Z,25.20
2022-07-28T20:07:51.701Z,25.20
2022-07-28T20:10:18.641Z,25.10
2022-07-28T20:12:46.130Z,25.10
2022-07-28T20:15:13.172Z,25.00
2022-07-28T20:17:40.740Z,24.90
2022-07-28T20:20:09.933Z,24.80
2022-07-28T20:22:39.584Z,24.70
2022-07-28T20:25:09.249Z,24.70
2022-07-28T20:27:41.082Z,24.50
2022-07-28T20:30:10.280Z,24.40
2022-07-28T20:32:37.942Z,24.40
2022-07-28T20:35:08.130Z,24.40
2022-07-28T20:37:36.870Z,24.30
2022-07-28T20:40:06.226Z,24.30
2022-07-28T20:42:33.788Z,24.20
2022-07-28T20:45:00.579Z,24.10
2022-07-28T20:47:27.968Z,24.10
2022-07-28T20:49:55.311Z,24.10
2022-07-28T20:52:23.429Z,24.00
2022-07-28T20:54:54.195Z,24.00
2022-07-28T20:57:30.195Z,23.90
2022-07-28T20:59:57.616Z,23.90
2022-07-28T21:02:24.861Z,23.90
2022-07-28T21:04:52.030Z,23.90
2022-07-28T21:07:59.936Z,23.80
2022-07-28T21:10:08.093Z,23.80
2022-07-28T21:12:36.894Z,23.80
2022-07-28T21:15:05.419Z,23.70
2022-07-28T21:17:32.357Z,23.70
2022-07-28T21:19:59.273Z,23.70
2022-07-28T21:22:26.794Z,23.70
2022-07-28T21:24:55.543Z,23.60
2022-07-28T21:27:22.946Z,23.70
2022-07-28T21:32:17.772Z,23.70
2022-07-28T21:34:44.810Z,23.70
2022-07-28T21:37:12.899Z,23.60
2022-07-28T21:39:39.888Z,23.60
2022-07-28T21:42:08.510Z,23.60
2022-07-28T21:44:36.644Z,23.60
2022-07-28T21:47:03.869Z,23.50
2022-07-28T21:49:31.344Z,23.50
2022-07-28T21:51:58.316Z,23.30
2022-07-28T21:54:25.327Z,23.20
2022-07-28T21:56:52.168Z,23.20
2022-07-28T21:59:18.966Z,23.20
2022-07-28T22:01:46.161Z,23.10
2022-07-28T22:04:13.271Z,23.10
2022-07-28T22:06:40.438Z,23.10
2022-07-28T22:09:07.303Z,23.10
2022-07-28T22:11:34.056Z,23.10
2022-07-28T22:14:01.434Z,23.10
2022-07-28T22:16:28.294Z,23.20
2022-07-28T22:18:55.078Z,23.10
2022-07-28T22:21:22.073Z,23.10
2022-07-28T22:23:48.822Z,23.20
2022-07-28T22:26:15.640Z,23.20
2022-07-28T22:28:42.537Z,23.20
2022-07-28T22:31:10.159Z,23.10
2022-07-28T22:33:38.528Z,23.10
2022-07-28T22:36:09.411Z,23.00
2022-07-28T22:38:36.648Z,23.00
2022-07-28T22:41:04.089Z,22.90
2022-07-28T22:43:34.483Z,22.90
2022-07-28T22:46:01.494Z,22.80
2022-07-28T22:48:28.597Z,22.80
2022-07-28T22:50:55.532Z,22.70
2022-07-28T22:53:22.316Z,22.80
2022-07-28T22:55:49.249Z,22.70
2022-07-28T22:58:15.988Z,22.60
2022-07-28T23:00:42.839Z,22.60
2022-07-28T23:03:13.235Z,22.60
2022-07-28T23:05:42.791Z,22.50
2022-07-28T23:08:09.609Z,22.40
2022-07-28T23:10:37.462Z,22.40
2022-07-28T23:13:04.348Z,22.30
2022-07-28T23:15:40.503Z,22.30
2022-07-28T23:18:13.685Z,22.20
2022-07-28T23:20:41.149Z,22.10
2022-07-28T23:23:08.395Z,22.10
2022-07-28T23:25:40.546Z,22.10
2022-07-28T23:28:07.767Z,22.00
2022-07-28T23:30:34.819Z,22.00
2022-07-28T23:33:01.616Z,22.00
2022-07-28T23:35:28.484Z,22.00
2022-07-28T23:37:55.341Z,22.00
2022-07-28T23:40:22.581Z,22.00
2022-07-28T23:42:49.347Z,21.90
2022-07-28T23:45:16.071Z,21.90
2022-07-28T23:47:42.990Z,21.90
2022-07-28T23:50:09.935Z,21.90
2022-07-28T23:52:37.017Z,21.90
2022-07-28T23:55:04.351Z,21.90
2022-07-28T23:57:31.557Z,21.90
